KPAM/PAM METAR and TAF weather

Enter ICAO airport designator
Station Type Date Time Source
KPAM METAR 2020/11/27 15:06 UTC NOAA

KPAM 271506Z AUTO 18005KT 10SM SCT004 BKN009 23/23 A3013 RMK AO2 CIG 004V009 SLP206


Station Type Date Time Source
KPAM Decoded METAR 2020/11/27 15:06 UTC NOAA

Tyndall Air Force Base, FL, United States (KPAM) 30-04N 085-35W 13M
Nov 27, 2020 - 10:06 AM EST / 2020.11.27 1506 UTC
Wind: from the S (180 degrees) at 6 MPH (5 KT):0
Visibility: 10 mile(s):0
Sky conditions: mostly cloudy
Temperature: 73 F (23 C)
Dew Point: 73 F (23 C)
Relative Humidity: 100%
Pressure (altimeter): 30.13 in. Hg (1020 hPa)
ob: KPAM 271506Z AUTO 18005KT 10SM SCT004 BKN009 23/23 A3013 RMK AO2 CIG 004V009 SLP206
cycle: 15

Station Type Date Time Source
KPAM TAF 2020/11/25 20:06 UTC NOAA

TAF KPAM 252000Z 2520/2702 17012G18KT 9999 SCT025 QNH3008INS
BECMG 2522/2523 16012G18KT 9000 -SHRA BKN025 QNH3009INS
BECMG 2600/2601 15009KT 9999 NSW BKN035 QNH3009INS
BECMG 2605/2606 16012G18KT 8000 -SHRA BKN010 BKN035 QNH3007INS
TEMPO 2615/2618 VCTS BKN010CB
BECMG 2617/2618 19015G26KT 6000 TSRA BKN010CB QNH3005INS
BECMG 2622/2623 17009KT 8000 -SHRA BKN035 QNH3007INS TX27/2521Z TN22/2612Z LAST NO
AMDS AFT 2521 NEXT 3012

Example: see airport list